Time;durP1;ratioP1;P1;durP2;ratioP2;P2;SDS_P1;SDS_P2;PMS_P1;PMS_P2;Temp;Humidity;BMP_temperature;BMP_pressure;BME280_temperature;BME280_humidity;BME280_pressure;Samples;Min_cycle;Max_cycle;Signal;HPM_P1;HPM_P2
2022/08/29 00:01:20;;;;;;;30.80;6.25;;;;;;;;;;5051529;28;20110;-70
2022/08/29 00:03:46;;;;;;;27.25;6.13;;;;;;;;;;5024694;23;20069;-76
2022/08/29 00:06:12;;;;;;;25.88;5.70;;;;;;;;;;4989836;28;20026;-76
2022/08/29 00:08:38;;;;;;;28.77;6.53;;;;;;;;;;4989861;28;20500;-75
2022/08/29 00:11:05;;;;;;;37.58;7.10;;;;;;;;;;4990151;28;20451;-76
2022/08/29 00:13:31;;;;;;;32.83;6.93;;;;;;;;;;4990177;28;20098;-74
2022/08/29 00:15:57;;;;;;;30.27;6.80;;;;;;;;;;4991639;28;20501;-74
2022/08/29 00:18:23;;;;;;;33.70;7.13;;;;;;;;;;4996489;28;20038;-74
2022/08/29 00:20:49;;;;;;;31.88;8.38;;;;;;;;;;4997464;28;20037;-75
2022/08/29 00:23:15;;;;;;;34.63;7.65;;;;;;;;;;4993814;28;20082;-77
2022/08/29 00:25:41;;;;;;;29.33;6.40;;;;;;;;;;4992926;28;20066;-75
2022/08/29 00:28:07;;;;;;;28.48;6.60;;;;;;;;;;4991246;28;20038;-76
2022/08/29 00:30:34;;;;;;;36.08;6.75;;;;;;;;;;4991492;28;20026;-75
2022/08/29 00:33:00;;;;;;;30.45;6.10;;;;;;;;;;4991721;28;20407;-75
2022/08/29 00:35:31;;;;;;;23.75;6.20;;;;;;;;;;4992520;28;20109;-73
2022/08/29 00:37:56;;;;;;;29.13;6.10;;;;;;;;;;4997910;28;20033;-76
2022/08/29 00:40:28;;;;;;;30.00;7.53;;;;;;;;;;4996063;28;20088;-76
2022/08/29 00:42:54;;;;;;;35.15;7.35;;;;;;;;;;4992338;28;20026;-75
2022/08/29 00:45:20;;;;;;;26.45;6.75;;;;;;;;;;4974534;28;20488;-74
2022/08/29 00:47:52;;;;;;;25.67;6.43;;;;;;;;;;4992211;28;20049;-76
2022/08/29 00:50:23;;;;;;;30.63;6.88;;;;;;;;;;4992391;28;20028;-74
2022/08/29 00:52:49;;;;;;;23.23;6.43;;;;;;;;;;4992532;28;20479;-76
2022/08/29 00:55:20;;;;;;;32.80;7.38;;;;;;;;;;4992186;28;20438;-75
2022/08/29 00:57:47;;;;;;;24.58;7.22;;;;;;;;;;4992033;28;20448;-74
2022/08/29 01:00:13;;;;;;;30.85;6.47;;;;;;;;;;4992059;28;20031;-75
2022/08/29 01:02:40;;;;;;;34.88;7.80;;;;;;;;;;4992318;28;20062;-76
2022/08/29 01:05:07;;;;;;;28.55;6.95;;;;;;;;;;4992057;28;20441;-76
2022/08/29 01:07:33;;;;;;;26.17;6.10;;;;;;;;;;4992070;28;20092;-75
2022/08/29 01:09:59;;;;;;;34.72;6.65;;;;;;;;;;4994141;28;20022;-76
2022/08/29 01:12:26;;;;;;;29.10;6.78;;;;;;;;;;4980699;28;20483;-75
2022/08/29 01:14:57;;;;;;;30.90;6.68;;;;;;;;;;4998820;28;20023;-76
2022/08/29 01:17:27;;;;;;;28.58;6.75;;;;;;;;;;4977769;28;20049;-77
2022/08/29 01:19:53;;;;;;;31.02;6.60;;;;;;;;;;4992973;28;20034;-77
2022/08/29 01:22:38;;;;;;;31.02;7.00;;;;;;;;;;4992474;28;20026;-75
2022/08/29 01:25:06;;;;;;;37.03;7.75;;;;;;;;;;4991832;28;20030;-76
2022/08/29 01:27:34;;;;;;;23.17;6.55;;;;;;;;;;4991690;28;20027;-74
2022/08/29 01:30:00;;;;;;;30.77;7.15;;;;;;;;;;4992232;28;20430;-75
2022/08/29 01:32:26;;;;;;;30.00;7.13;;;;;;;;;;4993804;28;20029;-75
2022/08/29 01:34:52;;;;;;;27.00;6.90;;;;;;;;;;5002551;28;20106;-75
2022/08/29 01:37:19;;;;;;;29.23;7.72;;;;;;;;;;5016284;28;20073;-76
2022/08/29 01:39:45;;;;;;;29.75;6.47;;;;;;;;;;5016759;28;20015;-75
2022/08/29 01:42:13;;;;;;;27.38;7.53;;;;;;;;;;5016544;28;20038;-75
2022/08/29 01:44:40;;;;;;;35.08;7.35;;;;;;;;;;5015652;28;20057;-74
2022/08/29 01:47:06;;;;;;;25.63;7.00;;;;;;;;;;4996129;28;20049;-76
2022/08/29 01:49:33;;;;;;;36.17;7.78;;;;;;;;;;4992186;28;20113;-76
2022/08/29 01:52:00;;;;;;;34.67;8.32;;;;;;;;;;4992393;28;20027;-75
2022/08/29 01:54:27;;;;;;;34.55;7.68;;;;;;;;;;4992819;28;20381;-76
2022/08/29 01:56:53;;;;;;;44.28;8.68;;;;;;;;;;4992101;28;20542;-77
2022/08/29 01:59:21;;;;;;;42.13;7.70;;;;;;;;;;4992501;28;20022;-76
2022/08/29 02:01:53;;;;;;;32.58;7.70;;;;;;;;;;4992249;28;20084;-75
2022/08/29 02:04:19;;;;;;;30.08;7.47;;;;;;;;;;4992319;28;20038;-76
2022/08/29 02:06:45;;;;;;;24.10;6.88;;;;;;;;;;4992156;28;20114;-76
2022/08/29 02:09:11;;;;;;;31.58;7.32;;;;;;;;;;4992625;28;20382;-76
2022/08/29 02:11:38;;;;;;;40.13;7.45;;;;;;;;;;4974698;28;20062;-75
2022/08/29 02:14:05;;;;;;;37.70;8.40;;;;;;;;;;4992143;28;20019;-76
2022/08/29 02:16:32;;;;;;;26.92;6.60;;;;;;;;;;4974247;28;20035;-76
2022/08/29 02:18:58;;;;;;;25.00;7.35;;;;;;;;;;4991851;28;20031;-75
2022/08/29 02:21:26;;;;;;;33.90;7.50;;;;;;;;;;4991690;28;20026;-76
2022/08/29 02:23:52;;;;;;;29.40;7.70;;;;;;;;;;4991902;28;20023;-74
2022/08/29 02:26:19;;;;;;;26.65;7.38;;;;;;;;;;4991657;28;20051;-75
2022/08/29 02:28:46;;;;;;;25.70;6.93;;;;;;;;;;4991695;28;20038;-77
2022/08/29 02:31:13;;;;;;;29.73;8.10;;;;;;;;;;4991798;28;20080;-74
2022/08/29 02:33:39;;;;;;;43.08;7.97;;;;;;;;;;4991854;28;20050;-76
2022/08/29 02:36:06;;;;;;;32.03;8.38;;;;;;;;;;4991432;28;20025;-75
2022/08/29 02:38:32;;;;;;;29.75;7.88;;;;;;;;;;4991640;28;20034;-75
2022/08/29 02:40:58;;;;;;;27.08;7.22;;;;;;;;;;4992238;28;20034;-75
2022/08/29 02:43:25;;;;;;;32.55;7.78;;;;;;;;;;4991643;28;20035;-75
2022/08/29 02:45:51;;;;;;;26.38;8.07;;;;;;;;;;4991749;28;20095;-76
2022/08/29 02:48:17;;;;;;;32.45;8.43;;;;;;;;;;4993621;28;20027;-77
2022/08/29 02:50:46;;;;;;;30.92;9.27;;;;;;;;;;4988995;28;20444;-77
2022/08/29 02:53:12;;;;;;;26.27;7.93;;;;;;;;;;4991667;28;20076;-75
2022/08/29 02:55:39;;;;;;;35.38;8.75;;;;;;;;;;4991534;28;20032;-75
2022/08/29 02:58:05;;;;;;;27.73;8.25;;;;;;;;;;4991867;28;20042;-76
2022/08/29 03:00:32;;;;;;;25.60;8.40;;;;;;;;;;4991204;28;20034;-76
2022/08/29 03:02:58;;;;;;;24.77;8.23;;;;;;;;;;4991585;28;20497;-76
2022/08/29 03:05:26;;;;;;;28.92;8.80;;;;;;;;;;4974212;28;20535;-76
2022/08/29 03:07:52;;;;;;;26.75;8.27;;;;;;;;;;4992801;28;20026;-77
2022/08/29 03:10:19;;;;;;;23.52;8.90;;;;;;;;;;4992622;28;20027;-77
2022/08/29 03:12:45;;;;;;;33.45;9.00;;;;;;;;;;4975369;28;20026;-75
2022/08/29 03:15:11;;;;;;;29.42;9.35;;;;;;;;;;4993504;28;20033;-76
2022/08/29 03:17:37;;;;;;;31.38;9.63;;;;;;;;;;4973870;28;20040;-76
2022/08/29 03:20:03;;;;;;;30.35;9.35;;;;;;;;;;4992105;28;20026;-77
2022/08/29 03:22:30;;;;;;;27.02;8.40;;;;;;;;;;4995512;28;20088;-76
2022/08/29 03:24:56;;;;;;;28.70;9.23;;;;;;;;;;4995106;28;20136;-75
2022/08/29 03:27:22;;;;;;;28.63;9.13;;;;;;;;;;4999756;28;20096;-75
2022/08/29 03:29:48;;;;;;;32.00;8.95;;;;;;;;;;4999647;28;20097;-76
2022/08/29 03:32:14;;;;;;;29.55;9.70;;;;;;;;;;4993233;28;20033;-76
2022/08/29 03:34:40;;;;;;;26.52;8.60;;;;;;;;;;4994492;28;20023;-77
2022/08/29 03:37:06;;;;;;;29.10;8.77;;;;;;;;;;4993723;28;20479;-77
2022/08/29 03:39:34;;;;;;;36.53;9.43;;;;;;;;;;4994787;28;20479;-76
2022/08/29 03:42:00;;;;;;;35.92;9.35;;;;;;;;;;4993138;28;20090;-77
2022/08/29 03:44:26;;;;;;;26.10;9.52;;;;;;;;;;4978549;28;20607;-76
2022/08/29 03:46:53;;;;;;;31.60;9.30;;;;;;;;;;5001506;28;20068;-76
2022/08/29 03:49:19;;;;;;;27.50;9.98;;;;;;;;;;4990767;28;20030;-75
2022/08/29 03:51:45;;;;;;;24.42;9.68;;;;;;;;;;4991101;28;20037;-75
2022/08/29 03:54:11;;;;;;;30.10;10.35;;;;;;;;;;4994291;28;20033;-75
2022/08/29 03:56:37;;;;;;;37.10;11.18;;;;;;;;;;5004921;28;20026;-75
2022/08/29 03:59:03;;;;;;;32.35;10.80;;;;;;;;;;5010810;28;20044;-74
2022/08/29 04:01:29;;;;;;;33.97;11.43;;;;;;;;;;5014520;28;20047;-74
2022/08/29 04:03:56;;;;;;;28.65;10.23;;;;;;;;;;5014080;28;20041;-74
2022/08/29 04:06:23;;;;;;;26.45;10.25;;;;;;;;;;5014898;28;20041;-75
2022/08/29 04:08:50;;;;;;;27.35;10.32;;;;;;;;;;5014742;28;20030;-74
2022/08/29 04:11:17;;;;;;;36.22;12.15;;;;;;;;;;5000799;28;20026;-75
2022/08/29 04:13:43;;;;;;;34.25;11.70;;;;;;;;;;4991550;28;20090;-76
2022/08/29 04:16:10;;;;;;;35.17;11.63;;;;;;;;;;4991721;28;20499;-77
2022/08/29 04:18:36;;;;;;;32.28;13.25;;;;;;;;;;4991633;28;20026;-76
2022/08/29 04:21:03;;;;;;;26.85;12.20;;;;;;;;;;4991523;28;20034;-76
2022/08/29 04:23:29;;;;;;;23.98;13.48;;;;;;;;;;4991440;28;20487;-77
2022/08/29 04:25:55;;;;;;;32.08;12.18;;;;;;;;;;4990774;28;20110;-77
2022/08/29 04:28:22;;;;;;;30.13;11.85;;;;;;;;;;4990866;28;20038;-76
2022/08/29 04:30:49;;;;;;;25.75;12.40;;;;;;;;;;4990345;28;20022;-77
2022/08/29 04:33:15;;;;;;;24.02;12.82;;;;;;;;;;4973438;28;20153;-76
2022/08/29 04:35:41;;;;;;;21.55;11.88;;;;;;;;;;4991768;28;20025;-75
2022/08/29 04:38:07;;;;;;;26.92;11.85;;;;;;;;;;4972754;28;20487;-74
2022/08/29 04:40:33;;;;;;;23.38;11.57;;;;;;;;;;4990060;28;20030;-75
2022/08/29 04:43:00;;;;;;;22.83;11.73;;;;;;;;;;4990464;28;20058;-75
2022/08/29 04:45:26;;;;;;;24.00;11.20;;;;;;;;;;4990396;28;20163;-75
2022/08/29 04:47:52;;;;;;;18.85;10.77;;;;;;;;;;4995839;28;20029;-74
2022/08/29 04:50:20;;;;;;;20.75;10.82;;;;;;;;;;4989871;28;20019;-75
2022/08/29 04:52:46;;;;;;;20.52;9.77;;;;;;;;;;4989986;28;20026;-76
2022/08/29 04:55:13;;;;;;;19.38;9.38;;;;;;;;;;4990940;28;20050;-77
2022/08/29 04:57:39;;;;;;;21.73;9.70;;;;;;;;;;4991594;28;20390;-77
2022/08/29 05:00:11;;;;;;;15.15;7.65;;;;;;;;;;4991224;28;20027;-76
2022/08/29 05:02:37;;;;;;;19.42;8.65;;;;;;;;;;4992318;28;20039;-75
2022/08/29 05:05:03;;;;;;;14.70;8.65;;;;;;;;;;4991285;28;20019;-75
2022/08/29 05:07:29;;;;;;;16.92;8.30;;;;;;;;;;4991276;28;20022;-77
2022/08/29 05:09:59;;;;;;;13.30;7.70;;;;;;;;;;4993465;28;20497;-77
2022/08/29 05:12:26;;;;;;;10.02;7.72;;;;;;;;;;4994604;28;20031;-77
2022/08/29 05:14:53;;;;;;;15.45;7.60;;;;;;;;;;4994069;28;20033;-77
2022/08/29 05:17:19;;;;;;;11.40;6.63;;;;;;;;;;4993697;28;20094;-76
2022/08/29 05:19:45;;;;;;;10.82;6.53;;;;;;;;;;4993038;28;20022;-77
2022/08/29 05:22:14;;;;;;;10.52;7.20;;;;;;;;;;4992679;28;20094;-75
2022/08/29 05:24:40;;;;;;;12.48;7.18;;;;;;;;;;4999320;28;20078;-77
2022/08/29 05:27:10;;;;;;;14.68;7.03;;;;;;;;;;4998581;28;20472;-75
2022/08/29 05:29:44;;;;;;;11.60;5.97;;;;;;;;;;4999040;28;20053;-77
2022/08/29 05:32:10;;;;;;;10.23;6.20;;;;;;;;;;4995803;28;20018;-76
2022/08/29 05:34:37;;;;;;;11.48;6.05;;;;;;;;;;4993173;28;20107;-75
2022/08/29 05:37:05;;;;;;;10.13;5.22;;;;;;;;;;4976304;28;20030;-77
2022/08/29 05:39:31;;;;;;;9.88;5.35;;;;;;;;;;4993634;28;20034;-74
2022/08/29 05:41:58;;;;;;;13.18;6.00;;;;;;;;;;4993495;28;20034;-76
2022/08/29 05:44:25;;;;;;;11.90;5.55;;;;;;;;;;4992969;28;20053;-75
2022/08/29 05:46:51;;;;;;;8.85;5.72;;;;;;;;;;4992764;28;20022;-77
2022/08/29 05:49:17;;;;;;;9.27;4.75;;;;;;;;;;4994428;28;20037;-76
2022/08/29 05:51:43;;;;;;;8.52;5.30;;;;;;;;;;4994538;28;20365;-76
2022/08/29 05:54:09;;;;;;;8.82;4.90;;;;;;;;;;4994477;28;20080;-77
2022/08/29 05:56:35;;;;;;;16.77;7.00;;;;;;;;;;4994433;28;20105;-76
2022/08/29 05:59:00;;;;;;;8.70;5.30;;;;;;;;;;4993776;28;20031;-76
2022/08/29 06:01:28;;;;;;;7.72;5.38;;;;;;;;;;4975675;28;20451;-76
2022/08/29 06:03:54;;;;;;;12.18;4.50;;;;;;;;;;4993051;28;20048;-75
2022/08/29 06:06:21;;;;;;;10.93;4.60;;;;;;;;;;4975656;28;20502;-75
2022/08/29 06:08:48;;;;;;;9.00;4.72;;;;;;;;;;4993124;28;20106;-76
2022/08/29 06:11:18;;;;;;;16.50;8.35;;;;;;;;;;4993681;28;20019;-76
2022/08/29 06:13:44;;;;;;;9.85;4.80;;;;;;;;;;4976281;28;20471;-77
2022/08/29 06:16:11;;;;;;;10.68;4.43;;;;;;;;;;4976556;28;20027;-77
2022/08/29 06:18:37;;;;;;;7.30;4.30;;;;;;;;;;4995444;28;20084;-77
2022/08/29 06:21:06;;;;;;;7.20;4.78;;;;;;;;;;5007681;28;20102;-75
2022/08/29 06:23:32;;;;;;;9.55;4.70;;;;;;;;;;5009320;28;20109;-76
2022/08/29 06:25:58;;;;;;;10.02;5.65;;;;;;;;;;5002559;28;20026;-76
2022/08/29 06:28:26;;;;;;;7.15;4.38;;;;;;;;;;4985199;28;20121;-75
2022/08/29 06:30:52;;;;;;;7.50;3.58;;;;;;;;;;5003340;28;20030;-75
2022/08/29 06:33:18;;;;;;;6.70;3.78;;;;;;;;;;5002126;28;20078;-75
2022/08/29 06:35:44;;;;;;;11.48;4.05;;;;;;;;;;4982382;28;20053;-76
2022/08/29 06:38:10;;;;;;;9.75;4.28;;;;;;;;;;5003842;28;20054;-75
2022/08/29 06:40:36;;;;;;;12.18;5.82;;;;;;;;;;4996855;28;20034;-81
2022/08/29 06:43:02;;;;;;;8.00;4.00;;;;;;;;;;4973489;28;20110;-77
2022/08/29 06:45:28;;;;;;;11.50;4.57;;;;;;;;;;4992918;28;20031;-78
2022/08/29 06:47:54;;;;;;;11.80;4.90;;;;;;;;;;4991983;28;20118;-76
2022/08/29 06:50:21;;;;;;;6.45;4.07;;;;;;;;;;4991957;28;20019;-78
2022/08/29 06:52:47;;;;;;;9.20;4.50;;;;;;;;;;4991392;28;20483;-78
2022/08/29 06:55:13;;;;;;;6.80;3.78;;;;;;;;;;4991521;28;20045;-77
2022/08/29 06:57:43;;;;;;;7.28;4.07;;;;;;;;;;4990838;28;20511;-79
2022/08/29 07:00:11;;;;;;;9.98;3.70;;;;;;;;;;4993084;28;20018;-77
2022/08/29 07:02:37;;;;;;;9.88;3.88;;;;;;;;;;5016156;28;20020;-79
2022/08/29 07:05:04;;;;;;;9.63;3.85;;;;;;;;;;5076274;28;20081;-76
2022/08/29 07:07:30;;;;;;;7.00;3.47;;;;;;;;;;5095874;28;20029;-77
2022/08/29 07:09:56;;;;;;;6.60;3.15;;;;;;;;;;5093995;28;20522;-78
2022/08/29 07:12:22;;;;;;;7.65;3.20;;;;;;;;;;5096983;28;20024;-78
2022/08/29 07:14:48;;;;;;;13.07;6.45;;;;;;;;;;5099685;28;20020;-78
2022/08/29 07:17:14;;;;;;;8.55;4.47;;;;;;;;;;5047317;28;20095;-76
2022/08/29 07:19:40;;;;;;;8.20;4.28;;;;;;;;;;5001807;28;20031;-77
2022/08/29 07:22:06;;;;;;;7.05;3.70;;;;;;;;;;4981603;28;20039;-76
2022/08/29 07:24:33;;;;;;;11.32;6.03;;;;;;;;;;4975394;28;20035;-78
2022/08/29 07:26:59;;;;;;;12.30;5.60;;;;;;;;;;4991107;28;20038;-76
2022/08/29 07:29:25;;;;;;;13.73;5.53;;;;;;;;;;4992172;28;20036;-79
2022/08/29 07:31:52;;;;;;;12.80;6.15;;;;;;;;;;4992617;28;20446;-78
2022/08/29 07:34:19;;;;;;;14.93;6.88;;;;;;;;;;4992288;28;20018;-76
2022/08/29 07:36:45;;;;;;;8.45;4.68;;;;;;;;;;4991259;28;20037;-77
2022/08/29 07:39:12;;;;;;;8.23;4.50;;;;;;;;;;4991555;28;20030;-76
2022/08/29 07:41:39;;;;;;;9.32;3.95;;;;;;;;;;4990978;28;20030;-76
2022/08/29 07:44:05;;;;;;;13.55;6.07;;;;;;;;;;4993254;28;20105;-77
2022/08/29 07:46:31;;;;;;;15.38;6.32;;;;;;;;;;4997012;28;20519;-76
2022/08/29 07:48:57;;;;;;;21.63;14.27;;;;;;;;;;4973936;28;20061;-76
2022/08/29 07:51:24;;;;;;;9.57;4.38;;;;;;;;;;4991414;28;20378;-77
2022/08/29 07:53:50;;;;;;;10.45;2.70;;;;;;;;;;4991361;28;20109;-76
2022/08/29 07:56:18;;;;;;;9.60;4.63;;;;;;;;;;4974418;28;20375;-78
2022/08/29 07:58:45;;;;;;;8.90;3.75;;;;;;;;;;5002138;28;20025;-76
2022/08/29 08:01:11;;;;;;;5.65;2.55;;;;;;;;;;5003941;28;20026;-77
2022/08/29 08:03:37;;;;;;;6.57;2.38;;;;;;;;;;4990839;28;20397;-78
2022/08/29 08:06:03;;;;;;;4.20;2.30;;;;;;;;;;4991482;28;20382;-77
2022/08/29 08:08:30;;;;;;;5.80;2.83;;;;;;;;;;4992360;28;20487;-76
2022/08/29 08:10:56;;;;;;;5.65;2.20;;;;;;;;;;4975136;28;20031;-77
2022/08/29 08:13:22;;;;;;;6.82;1.90;;;;;;;;;;5000802;28;20037;-77
2022/08/29 08:15:48;;;;;;;3.38;1.80;;;;;;;;;;4992164;28;20037;-76
2022/08/29 08:18:15;;;;;;;3.45;1.38;;;;;;;;;;4992282;28;20129;-76
2022/08/29 08:20:47;;;;;;;3.20;1.80;;;;;;;;;;4993741;28;20434;-76
2022/08/29 08:23:12;;;;;;;8.50;2.10;;;;;;;;;;4994205;28;20464;-77
2022/08/29 08:25:38;;;;;;;5.72;2.00;;;;;;;;;;4993724;28;20058;-77
2022/08/29 08:28:04;;;;;;;2.65;1.77;;;;;;;;;;4992960;28;20038;-77
2022/08/29 08:30:30;;;;;;;6.05;1.52;;;;;;;;;;4993871;28;20038;-76
2022/08/29 08:32:56;;;;;;;4.75;1.70;;;;;;;;;;4973768;28;20098;-77
2022/08/29 08:35:22;;;;;;;3.72;1.77;;;;;;;;;;4990766;28;20110;-77
2022/08/29 08:37:48;;;;;;;5.43;1.90;;;;;;;;;;4991830;28;20058;-77
2022/08/29 08:40:22;;;;;;;6.32;2.10;;;;;;;;;;4991531;28;20031;-77
2022/08/29 08:42:49;;;;;;;3.30;2.10;;;;;;;;;;4998812;28;20026;-77
2022/08/29 08:45:19;;;;;;;2.65;1.50;;;;;;;;;;5009131;28;20078;-81
2022/08/29 08:47:45;;;;;;;2.75;1.33;;;;;;;;;;5012726;28;20035;-80
2022/08/29 08:50:11;;;;;;;4.28;1.10;;;;;;;;;;5012766;28;20019;-78
2022/08/29 08:52:37;;;;;;;2.47;1.38;;;;;;;;;;5012925;28;20032;-79
2022/08/29 08:55:23;;;;;;;2.17;1.60;;;;;;;;;;4996327;28;20130;-77
2022/08/29 08:57:54;;;;;;;5.45;1.55;;;;;;;;;;4992267;28;20498;-80
2022/08/29 09:00:20;;;;;;;3.70;1.88;;;;;;;;;;4994524;28;20530;-76
2022/08/29 09:03:12;;;;;;;2.35;1.40;;;;;;;;;;4993907;28;20041;-76
2022/08/29 09:05:42;;;;;;;3.20;1.40;;;;;;;;;;4996392;28;20038;-76
2022/08/29 09:08:22;;;;;;;5.20;1.88;;;;;;;;;;4995967;28;20122;-76
2022/08/29 09:11:01;;;;;;;3.20;1.70;;;;;;;;;;4993693;28;20023;-77
2022/08/29 09:13:27;;;;;;;3.70;1.70;;;;;;;;;;4995456;28;20010;-78
2022/08/29 09:15:54;;;;;;;4.18;1.40;;;;;;;;;;4994938;28;20018;-78
2022/08/29 09:18:29;;;;;;;2.17;1.30;;;;;;;;;;4995515;28;20080;-77
2022/08/29 09:20:56;;;;;;;4.22;1.48;;;;;;;;;;4977598;28;20031;-77
2022/08/29 09:23:28;;;;;;;6.45;1.70;;;;;;;;;;4995595;28;20375;-77
2022/08/29 09:25:54;;;;;;;2.55;1.15;;;;;;;;;;4995624;28;20034;-77
2022/08/29 09:28:20;;;;;;;3.05;1.25;;;;;;;;;;4994951;28;20065;-77
2022/08/29 09:31:06;;;;;;;3.42;1.35;;;;;;;;;;4995849;28;20026;-77
2022/08/29 09:33:43;;;;;;;7.03;1.65;;;;;;;;;;5004106;28;20033;-76
2022/08/29 09:36:11;;;;;;;3.42;1.70;;;;;;;;;;5001557;28;20023;-75
2022/08/29 09:38:37;;;;;;;3.83;1.77;;;;;;;;;;5001914;28;20031;-78
2022/08/29 09:41:06;;;;;;;3.03;1.30;;;;;;;;;;5000394;28;20117;-76
2022/08/29 09:43:38;;;;;;;8.10;1.05;;;;;;;;;;4999265;28;20022;-78
2022/08/29 09:46:11;;;;;;;4.68;1.40;;;;;;;;;;4997622;28;20436;-78
2022/08/29 09:48:38;;;;;;;5.60;2.08;;;;;;;;;;4977427;28;20130;-79
2022/08/29 09:51:33;;;;;;;0.80;0.80;;;;;;;;;;4976527;28;20042;-80
2022/08/29 09:54:18;;;;;;;5.18;1.60;;;;;;;;;;4995740;28;20031;-78
2022/08/29 09:56:49;;;;;;;4.78;1.48;;;;;;;;;;4995397;28;20026;-77
2022/08/29 09:59:21;;;;;;;2.22;1.10;;;;;;;;;;4976289;28;20030;-78
2022/08/29 10:01:48;;;;;;;2.55;1.00;;;;;;;;;;4995252;28;20406;-77
2022/08/29 10:04:34;;;;;;;5.15;1.60;;;;;;;;;;4994155;28;20284;-77
2022/08/29 10:07:08;;;;;;;2.08;0.98;;;;;;;;;;4998381;28;20041;-77
2022/08/29 10:09:34;;;;;;;3.20;1.00;;;;;;;;;;4994451;28;20023;-79
2022/08/29 10:12:03;;;;;;;3.42;0.93;;;;;;;;;;4976617;28;20021;-78
2022/08/29 10:14:37;;;;;;;1.75;0.80;;;;;;;;;;4993489;28;20531;-77
2022/08/29 10:19:55;;;;;;;3.75;1.30;;;;;;;;;;4993823;28;20050;-78
2022/08/29 10:22:29;;;;;;;2.58;0.93;;;;;;;;;;4975966;28;20035;-79
2022/08/29 10:25:08;;;;;;;5.82;1.00;;;;;;;;;;4993745;28;20165;-77
2022/08/29 10:27:43;;;;;;;4.07;1.20;;;;;;;;;;4992896;28;20066;-77
2022/08/29 10:30:15;;;;;;;4.35;1.20;;;;;;;;;;4994415;28;20034;-80
2022/08/29 10:33:00;;;;;;;1.45;0.77;;;;;;;;;;4977211;28;20064;-77
2022/08/29 10:35:37;;;;;;;5.03;1.00;;;;;;;;;;4993100;28;20033;-76
2022/08/29 10:38:06;;;;;;;2.88;1.00;;;;;;;;;;4993240;28;20031;-77
2022/08/29 10:40:44;;;;;;;1.10;0.70;;;;;;;;;;4994006;28;20549;-78
2022/08/29 10:43:22;;;;;;;4.43;0.80;;;;;;;;;;4993140;28;20033;-76
2022/08/29 10:45:48;;;;;;;4.30;1.00;;;;;;;;;;4975348;28;20027;-78
2022/08/29 10:48:20;;;;;;;6.15;0.88;;;;;;;;;;4993439;28;20110;-76
2022/08/29 10:50:58;;;;;;;3.63;0.90;;;;;;;;;;4993223;28;20022;-77
2022/08/29 10:53:27;;;;;;;7.22;4.70;;;;;;;;;;4992730;28;20484;-77
2022/08/29 10:56:00;;;;;;;1.63;0.90;;;;;;;;;;4975499;28;20022;-78
2022/08/29 10:58:32;;;;;;;1.83;1.10;;;;;;;;;;4993150;28;20075;-78
2022/08/29 11:01:02;;;;;;;4.05;1.45;;;;;;;;;;4995915;28;20460;-77
2022/08/29 11:03:34;;;;;;;4.47;1.02;;;;;;;;;;5008633;28;20140;-78
2022/08/29 11:06:02;;;;;;;3.50;1.25;;;;;;;;;;5014954;28;20026;-81
2022/08/29 11:08:33;;;;;;;6.07;2.38;;;;;;;;;;5015471;28;20033;-79
2022/08/29 11:10:59;;;;;;;3.10;1.20;;;;;;;;;;4997655;28;20049;-81
2022/08/29 11:13:25;;;;;;;2.75;1.23;;;;;;;;;;5011862;28;20030;-78
2022/08/29 11:15:57;;;;;;;3.78;1.60;;;;;;;;;;4994222;28;20467;-77
2022/08/29 11:18:25;;;;;;;2.28;0.80;;;;;;;;;;4992967;28;20027;-78
2022/08/29 11:20:56;;;;;;;1.48;0.77;;;;;;;;;;4992170;28;20026;-78
2022/08/29 11:23:25;;;;;;;1.55;0.70;;;;;;;;;;4993654;28;20019;-79
2022/08/29 11:25:51;;;;;;;4.82;0.80;;;;;;;;;;4993558;28;20026;-75
2022/08/29 11:28:21;;;;;;;3.08;1.10;;;;;;;;;;4994857;28;20038;-77
2022/08/29 11:31:17;;;;;;;2.60;0.95;;;;;;;;;;4993680;28;20091;-79
2022/08/29 11:33:50;;;;;;;3.65;1.25;;;;;;;;;;5002556;28;20078;-79
2022/08/29 11:36:32;;;;;;;4.57;1.48;;;;;;;;;;5093824;28;20031;-79
2022/08/29 11:39:04;;;;;;;3.80;1.67;;;;;;;;;;5076077;28;20055;-81
2022/08/29 11:41:39;;;;;;;3.50;1.20;;;;;;;;;;5076042;28;20074;-78
2022/08/29 11:44:05;;;;;;;;;;;;;;;;;;5079256;28;20024;-79
2022/08/29 11:46:39;;;;;;;5.32;1.30;;;;;;;;;;5076149;28;19991;-79
2022/08/29 11:49:24;;;;;;;4.25;1.80;;;;;;;;;;5095344;28;20035;-79
2022/08/29 11:51:54;;;;;;;2.85;1.30;;;;;;;;;;5093666;28;20048;-78
2022/08/29 11:54:23;;;;;;;5.43;2.13;;;;;;;;;;5093021;28;20016;-77
2022/08/29 11:57:04;;;;;;;9.90;3.70;;;;;;;;;;5093957;28;20448;-78
2022/08/29 11:59:49;;;;;;;4.53;1.70;;;;;;;;;;5095028;28;20125;-77
2022/08/29 12:04:52;;;;;;;15.13;4.43;;;;;;;;;;4950683;29;19926;-70
2022/08/29 12:07:19;;;;;;;7.60;2.50;;;;;;;;;;4950941;28;20027;-70
2022/08/29 12:09:47;;;;;;;6.10;3.05;;;;;;;;;;4951612;28;20035;-70
2022/08/29 12:12:18;;;;;;;10.98;4.15;;;;;;;;;;4954475;28;20097;-71
2022/08/29 12:14:48;;;;;;;6.78;1.30;;;;;;;;;;4936775;29;20054;-71
2022/08/29 12:17:17;;;;;;;6.60;2.22;;;;;;;;;;4936524;29;20024;-71
2022/08/29 12:19:56;;;;;;;7.13;2.10;;;;;;;;;;4934202;29;20032;-71
2022/08/29 12:22:40;;;;;;;5.45;1.90;;;;;;;;;;4936145;29;20120;-71
2022/08/29 12:25:06;;;;;;;;;;;;;;;;;;4932415;28;20028;-71
2022/08/29 12:27:51;;;;;;;10.65;1.80;;;;;;;;;;4930858;29;19910;-71
2022/08/29 12:30:18;;;;;;;15.20;5.18;;;;;;;;;;4931936;28;20031;-71
2022/08/29 12:32:56;;;;;;;7.18;1.60;;;;;;;;;;4932862;29;20067;-71
2022/08/29 12:35:28;;;;;;;3.25;1.80;;;;;;;;;;4934537;29;20032;-71
2022/08/29 12:38:03;;;;;;;3.28;1.73;;;;;;;;;;4934683;29;20512;-71
2022/08/29 12:40:44;;;;;;;8.05;2.00;;;;;;;;;;4933418;29;20153;-72
2022/08/29 12:43:17;;;;;;;5.03;2.47;;;;;;;;;;4934877;29;20024;-72
2022/08/29 12:45:43;;;;;;;3.05;1.52;;;;;;;;;;4934327;29;20024;-72
2022/08/29 12:48:14;;;;;;;8.88;3.42;;;;;;;;;;4934504;29;20476;-72
2022/08/29 12:50:43;;;;;;;7.32;2.00;;;;;;;;;;4937115;29;20054;-72
2022/08/29 12:53:23;;;;;;;5.30;2.10;;;;;;;;;;4942597;29;20020;-71
2022/08/29 12:56:12;;;;;;;5.45;3.10;;;;;;;;;;4934273;29;20032;-73
2022/08/29 12:58:40;;;;;;;4.70;2.20;;;;;;;;;;4936914;28;20094;-72
2022/08/29 13:01:09;;;;;;;6.35;2.35;;;;;;;;;;4934418;29;20035;-71
2022/08/29 13:03:35;;;;;;;7.20;2.05;;;;;;;;;;4935795;29;20093;-71
2022/08/29 13:06:12;;;;;;;4.88;2.05;;;;;;;;;;4934472;29;20366;-71
2022/08/29 13:08:39;;;;;;;3.42;1.75;;;;;;;;;;4935079;29;20460;-73
2022/08/29 13:11:07;;;;;;;6.75;2.13;;;;;;;;;;4937144;29;20026;-72
2022/08/29 13:13:33;;;;;;;6.47;1.63;;;;;;;;;;4937606;29;20439;-73
2022/08/29 13:16:01;;;;;;;4.70;2.10;;;;;;;;;;4934220;28;20027;-72
2022/08/29 13:18:27;;;;;;;5.72;1.80;;;;;;;;;;4934941;29;20038;-72
2022/08/29 13:21:12;;;;;;;6.55;1.88;;;;;;;;;;4935352;29;20477;-72
2022/08/29 13:23:45;;;;;;;3.22;1.80;;;;;;;;;;4938462;29;20118;-71
2022/08/29 13:26:12;;;;;;;2.58;1.50;;;;;;;;;;4939265;29;20085;-72
2022/08/29 13:28:42;;;;;;;6.82;2.15;;;;;;;;;;4942703;29;20392;-72
2022/08/29 13:31:11;;;;;;;5.88;2.72;;;;;;;;;;4936848;29;20510;-71
2022/08/29 13:33:55;;;;;;;5.50;1.67;;;;;;;;;;4935074;29;20035;-71
2022/08/29 13:36:44;;;;;;;3.88;1.67;;;;;;;;;;4934224;29;20028;-71
2022/08/29 13:39:25;;;;;;;5.88;1.80;;;;;;;;;;4934618;29;20130;-71
2022/08/29 13:41:57;;;;;;;5.53;1.83;;;;;;;;;;4934191;29;20028;-72
2022/08/29 13:44:25;;;;;;;3.58;1.42;;;;;;;;;;4935108;29;20404;-72
2022/08/29 13:46:51;;;;;;;4.50;1.40;;;;;;;;;;4937396;29;20027;-71
2022/08/29 13:49:18;;;;;;;6.78;1.77;;;;;;;;;;4939027;29;20027;-71
2022/08/29 13:51:44;;;;;;;4.88;1.58;;;;;;;;;;4938922;29;20035;-72
2022/08/29 13:54:10;;;;;;;6.00;1.50;;;;;;;;;;4937340;29;20028;-72
2022/08/29 13:56:36;;;;;;;2.83;1.20;;;;;;;;;;4936612;29;20498;-71
2022/08/29 13:59:03;;;;;;;7.38;1.48;;;;;;;;;;4938799;29;20113;-72
2022/08/29 14:01:29;;;;;;;6.07;1.50;;;;;;;;;;4936346;28;20126;-72
2022/08/29 14:03:55;;;;;;;5.68;1.83;;;;;;;;;;4934205;29;20090;-71
2022/08/29 14:06:23;;;;;;;6.13;1.58;;;;;;;;;;4933807;29;20039;-71
2022/08/29 14:08:50;;;;;;;6.65;2.97;;;;;;;;;;4933550;29;20047;-73
2022/08/29 14:11:16;;;;;;;4.10;1.50;;;;;;;;;;4934310;29;20389;-72
2022/08/29 14:13:42;;;;;;;5.60;1.35;;;;;;;;;;4932365;28;20035;-71
2022/08/29 14:16:09;;;;;;;6.32;1.50;;;;;;;;;;4934381;29;20035;-73
2022/08/29 14:18:35;;;;;;;4.63;1.30;;;;;;;;;;4934441;29;20081;-72
2022/08/29 14:21:01;;;;;;;3.58;1.00;;;;;;;;;;4933746;29;20036;-72
2022/08/29 14:23:27;;;;;;;6.93;1.00;;;;;;;;;;4939944;29;20028;-72
2022/08/29 14:25:53;;;;;;;5.55;1.08;;;;;;;;;;4936486;29;20329;-74
2022/08/29 14:28:19;;;;;;;3.25;1.48;;;;;;;;;;4932879;28;20405;-72
2022/08/29 14:30:45;;;;;;;4.57;1.10;;;;;;;;;;4933239;29;20062;-72
2022/08/29 14:33:11;;;;;;;6.43;1.45;;;;;;;;;;4933193;29;20039;-72
2022/08/29 14:35:37;;;;;;;6.13;1.27;;;;;;;;;;4932858;29;20106;-72
2022/08/29 14:38:05;;;;;;;2.72;0.90;;;;;;;;;;4932036;28;20035;-72
2022/08/29 14:40:31;;;;;;;4.60;1.30;;;;;;;;;;4933212;29;20435;-73
2022/08/29 14:42:58;;;;;;;4.57;1.23;;;;;;;;;;4933200;29;20051;-72
2022/08/29 14:45:24;;;;;;;3.53;0.90;;;;;;;;;;4933639;29;20078;-72
2022/08/29 14:47:50;;;;;;;4.22;1.10;;;;;;;;;;4932759;29;20036;-72
2022/08/29 14:50:16;;;;;;;3.75;1.58;;;;;;;;;;4933148;29;20031;-71